createdAt,value
2023-02-13T00:00:06.624Z,0.05
2023-02-13T00:01:11.519Z,0.07
2023-02-13T00:02:14.428Z,0.06
2023-02-13T00:03:19.410Z,0.03
2023-02-13T00:04:21.604Z,0.05
2023-02-13T00:05:26.268Z,0.03
2023-02-13T00:06:31.040Z,-0.01
2023-02-13T00:07:35.830Z,0.03
2023-02-13T00:08:40.645Z,0.03
2023-02-13T00:09:42.823Z,-0.02
2023-02-13T00:10:47.573Z,-0.05
2023-02-13T00:11:49.756Z,-0.07
2023-02-13T00:12:54.509Z,-0.12
2023-02-13T00:13:56.721Z,-0.12
2023-02-13T00:15:02.061Z,-0.15
2023-02-13T00:16:05.449Z,-0.19
2023-02-13T00:17:10.509Z,-0.27
2023-02-13T00:18:12.584Z,-0.31
2023-02-13T00:19:17.339Z,-0.42
2023-02-13T00:20:22.086Z,-0.54
2023-02-13T00:21:24.170Z,-0.62
2023-02-13T00:22:28.892Z,-0.71
2023-02-13T00:23:35.005Z,-0.77
2023-02-13T00:24:39.948Z,-0.81
2023-02-13T00:25:42.079Z,-0.86
2023-02-13T00:26:46.989Z,-0.92
2023-02-13T00:27:51.112Z,-1.00
2023-02-13T00:28:56.195Z,-1.03
2023-02-13T00:29:58.338Z,-1.09
2023-02-13T00:31:07.182Z,-1.10
2023-02-13T00:32:09.792Z,-1.11
2023-02-13T00:33:14.718Z,-1.15
2023-02-13T00:34:16.853Z,-1.21
2023-02-13T00:35:21.642Z,-1.25
2023-02-13T00:36:24.627Z,-1.24
2023-02-13T00:37:29.552Z,-1.27
2023-02-13T00:38:34.376Z,-1.28
2023-02-13T00:39:39.131Z,-1.28
2023-02-13T00:40:41.701Z,-1.29
2023-02-13T00:41:46.537Z,-1.30
2023-02-13T00:42:48.713Z,-1.32
2023-02-13T00:43:53.960Z,-1.35
2023-02-13T00:44:56.322Z,-1.35
2023-02-13T00:46:01.717Z,-1.33
2023-02-13T00:47:04.067Z,-1.39
2023-02-13T00:48:09.210Z,-1.38
2023-02-13T00:49:11.362Z,-1.37
2023-02-13T00:50:16.134Z,-1.41
2023-02-13T00:51:18.283Z,-1.47
2023-02-13T00:52:23.217Z,-1.51
2023-02-13T00:53:26.749Z,-1.52
2023-02-13T00:54:34.225Z,-1.50
2023-02-13T00:55:36.703Z,-1.51
2023-02-13T00:56:41.785Z,-1.53
2023-02-13T00:57:44.231Z,-1.58
2023-02-13T00:58:49.143Z,-1.60
2023-02-13T00:59:51.873Z,-1.63
2023-02-13T01:00:57.685Z,-1.66
2023-02-13T01:02:00.344Z,-1.70
2023-02-13T01:03:05.400Z,-1.68
2023-02-13T01:04:07.651Z,-1.67
2023-02-13T01:05:12.619Z,-1.73
2023-02-13T01:06:14.813Z,-1.73
2023-02-13T01:07:19.689Z,-1.75
2023-02-13T01:08:21.930Z,-1.82
2023-02-13T01:09:26.824Z,-1.84
2023-02-13T01:10:31.638Z,-1.87
2023-02-13T01:11:36.742Z,-1.89
2023-02-13T01:12:39.004Z,-1.87
2023-02-13T01:13:44.135Z,-1.90
2023-02-13T01:14:46.564Z,-1.83
2023-02-13T01:15:51.862Z,-1.77
2023-02-13T01:16:54.020Z,-1.72
2023-02-13T01:17:59.448Z,-1.66
2023-02-13T01:19:01.604Z,-1.53
2023-02-13T01:20:06.833Z,-1.48
2023-02-13T01:21:15.698Z,-1.46
2023-02-13T01:22:20.527Z,-1.39
2023-02-13T01:23:22.714Z,-1.25
2023-02-13T01:24:52.687Z,-1.21
2023-02-13T01:26:00.476Z,-1.11
2023-02-13T01:27:02.617Z,-1.11
2023-02-13T01:28:07.696Z,-1.07
2023-02-13T01:29:12.237Z,-1.06
2023-02-13T01:30:18.683Z,-1.05
2023-02-13T01:31:21.563Z,-0.98
2023-02-13T01:32:26.433Z,-0.97
2023-02-13T01:33:30.024Z,-0.85
2023-02-13T01:34:35.045Z,-0.79
2023-02-13T01:35:39.672Z,-0.76
2023-02-13T01:36:44.456Z,-0.68
2023-02-13T01:37:46.566Z,-0.64
2023-02-13T01:38:51.430Z,-0.72
2023-02-13T01:39:54.759Z,-0.76
2023-02-13T01:41:02.094Z,-0.79
2023-02-13T01:42:04.753Z,-0.86
2023-02-13T01:43:12.780Z,-0.86
2023-02-13T01:44:44.971Z,-0.87
2023-02-13T01:45:51.710Z,-0.96
2023-02-13T01:46:54.038Z,-0.97
2023-02-13T01:48:01.215Z,-1.02
2023-02-13T01:49:07.006Z,-1.05
2023-02-13T01:50:16.125Z,-1.11
2023-02-13T01:51:23.599Z,-1.14
2023-02-13T01:52:28.437Z,-1.19
2023-02-13T01:53:36.044Z,-1.22
2023-02-13T01:54:41.415Z,-1.31
2023-02-13T01:56:04.656Z,-1.33
2023-02-13T01:57:10.648Z,-1.38
2023-02-13T01:58:19.250Z,-1.43
2023-02-13T01:59:29.294Z,-1.43
2023-02-13T02:00:31.636Z,-1.50
2023-02-13T02:01:38.167Z,-1.55
2023-02-13T02:02:45.077Z,-1.55
2023-02-13T02:03:54.954Z,-1.62
2023-02-13T02:04:57.367Z,-1.70
2023-02-13T02:06:04.104Z,-1.74
2023-02-13T02:07:11.307Z,-1.73
2023-02-13T02:08:18.225Z,-1.73
2023-02-13T02:09:24.004Z,-1.75
2023-02-13T02:10:29.399Z,-1.79
2023-02-13T02:11:41.260Z,-1.85
2023-02-13T02:12:50.751Z,-1.94
2023-02-13T02:13:54.465Z,-1.98
2023-02-13T02:15:03.239Z,-2.05
2023-02-13T02:16:05.936Z,-2.08
2023-02-13T02:17:11.257Z,-2.11
2023-02-13T02:18:16.140Z,-2.15
2023-02-13T02:19:29.848Z,-2.17
2023-02-13T02:20:59.306Z,-2.22
2023-02-13T02:22:28.640Z,-2.25
2023-02-13T02:23:59.058Z,-2.25
2023-02-13T02:25:34.584Z,-2.27
2023-02-13T02:27:03.972Z,-2.30
2023-02-13T02:28:35.052Z,-2.28
2023-02-13T02:30:05.390Z,-2.31
2023-02-13T02:31:33.383Z,-2.34
2023-02-13T02:32:57.278Z,-2.32
2023-02-13T02:34:19.110Z,-2.35
2023-02-13T02:35:33.542Z,-2.34
2023-02-13T02:36:55.767Z,-2.34
2023-02-13T02:38:08.646Z,-2.37
2023-02-13T02:39:24.079Z,-2.34
2023-02-13T02:40:37.349Z,-2.34
2023-02-13T02:41:56.649Z,-2.38
2023-02-13T02:43:13.994Z,-2.34
2023-02-13T02:44:33.677Z,-2.34
2023-02-13T02:45:40.250Z,-2.35
2023-02-13T02:47:11.799Z,-2.41
2023-02-13T02:48:41.032Z,-2.43
2023-02-13T02:50:04.893Z,-2.49
2023-02-13T02:51:18.158Z,-2.50
2023-02-13T02:52:29.427Z,-2.53
2023-02-13T02:53:38.554Z,-2.54
2023-02-13T02:55:01.256Z,-2.55
2023-02-13T02:56:13.452Z,-2.55
2023-02-13T02:57:20.464Z,-2.53
2023-02-13T02:58:42.968Z,-2.59
2023-02-13T03:00:03.441Z,-2.55
2023-02-13T03:01:23.722Z,-2.61
2023-02-13T03:02:41.994Z,-2.63
2023-02-13T03:04:02.436Z,-2.68
2023-02-13T03:05:20.226Z,-2.71
2023-02-13T03:06:30.322Z,-2.76
2023-02-13T03:07:33.094Z,-2.74
2023-02-13T03:08:50.214Z,-2.77
2023-02-13T03:10:11.266Z,-2.84
2023-02-13T03:11:29.005Z,-2.92
2023-02-13T03:12:53.576Z,-2.93
2023-02-13T03:14:01.141Z,-2.98
2023-02-13T03:15:03.627Z,-2.93
2023-02-13T03:16:21.730Z,-2.95
2023-02-13T03:17:39.002Z,-2.98
2023-02-13T03:18:59.456Z,-3.00
2023-02-13T03:20:35.067Z,-3.07
2023-02-13T03:22:02.772Z,-2.99
2023-02-13T03:23:16.757Z,-3.04
2023-02-13T03:24:30.823Z,-3.01
2023-02-13T03:25:47.283Z,-3.02
2023-02-13T03:26:57.832Z,-3.00
2023-02-13T03:28:22.447Z,-3.01
2023-02-13T03:29:52.955Z,-3.01
2023-02-13T03:31:04.006Z,-2.99
2023-02-13T03:32:16.133Z,-2.82
2023-02-13T03:33:32.638Z,-2.81
2023-02-13T03:34:53.418Z,-2.81
2023-02-13T03:36:20.337Z,-2.82
2023-02-13T03:37:46.028Z,-2.84
2023-02-13T03:39:10.705Z,-2.86
2023-02-13T03:40:18.472Z,-2.92
2023-02-13T03:41:28.043Z,-2.93
2023-02-13T03:42:36.044Z,-2.99
2023-02-13T03:43:48.771Z,-2.99
2023-02-13T03:45:12.411Z,-2.97
2023-02-13T03:46:18.524Z,-2.97
2023-02-13T03:47:20.787Z,-2.99
2023-02-13T03:48:41.959Z,-2.95
2023-02-13T03:50:02.988Z,-2.97
2023-02-13T03:51:13.735Z,-2.99
2023-02-13T03:52:22.697Z,-3.02
2023-02-13T03:53:29.634Z,-3.02
2023-02-13T03:54:51.374Z,-2.99
2023-02-13T03:56:10.212Z,-2.98
2023-02-13T03:57:33.123Z,-2.98
2023-02-13T03:58:52.770Z,-3.02
2023-02-13T04:00:00.362Z,-3.05
2023-02-13T04:01:07.975Z,-3.06
2023-02-13T04:02:16.638Z,-3.09
2023-02-13T04:03:26.311Z,-3.12
2023-02-13T04:04:38.596Z,-3.11
2023-02-13T04:05:46.390Z,-3.17
2023-02-13T04:06:54.438Z,-3.21
2023-02-13T04:07:59.729Z,-3.24
2023-02-13T04:09:02.041Z,-3.30
2023-02-13T04:10:10.313Z,-3.33
2023-02-13T04:11:18.394Z,-3.38
2023-02-13T04:12:28.566Z,-3.42
2023-02-13T04:13:35.679Z,-3.46
2023-02-13T04:14:46.649Z,-3.49
2023-02-13T04:15:54.794Z,-3.54
2023-02-13T04:17:06.085Z,-3.57
2023-02-13T04:18:14.050Z,-3.62
2023-02-13T04:19:19.486Z,-3.56
2023-02-13T04:20:21.968Z,-3.55
2023-02-13T04:21:27.526Z,-3.56
2023-02-13T04:22:32.210Z,-3.57
2023-02-13T04:23:37.299Z,-3.59
2023-02-13T04:24:39.387Z,-3.60
2023-02-13T04:25:47.440Z,-3.62
2023-02-13T04:26:49.623Z,-3.61
2023-02-13T04:27:54.516Z,-3.61
2023-02-13T04:28:56.563Z,-3.60
2023-02-13T04:30:01.302Z,-3.58
2023-02-13T04:31:03.518Z,-3.58
2023-02-13T04:32:08.211Z,-3.57
2023-02-13T04:33:10.179Z,-3.56
2023-02-13T04:34:14.787Z,-3.58
2023-02-13T04:35:18.160Z,-3.59
2023-02-13T04:36:22.810Z,-3.57
2023-02-13T04:37:27.491Z,-3.60
2023-02-13T04:38:32.342Z,-3.63
2023-02-13T04:39:37.861Z,-3.59
2023-02-13T04:40:39.834Z,-3.60
2023-02-13T04:41:44.587Z,-3.60
2023-02-13T04:42:48.075Z,-3.63
2023-02-13T04:43:52.945Z,-3.63
2023-02-13T04:44:54.947Z,-3.62
2023-02-13T04:45:59.794Z,-3.58
2023-02-13T04:47:01.917Z,-3.56
2023-02-13T04:48:06.923Z,-3.54
2023-02-13T04:49:13.018Z,-3.54
2023-02-13T04:50:15.212Z,-3.54
2023-02-13T04:51:19.948Z,-3.50
2023-02-13T04:52:21.970Z,-3.54
2023-02-13T04:53:26.777Z,-3.55
2023-02-13T04:54:31.492Z,-3.56
2023-02-13T04:55:36.204Z,-3.56
2023-02-13T04:56:38.221Z,-3.56
2023-02-13T04:57:43.203Z,-3.57
2023-02-13T04:58:45.312Z,-3.56
2023-02-13T04:59:50.000Z,-3.60
2023-02-13T05:00:52.085Z,-3.65
2023-02-13T05:01:56.919Z,-3.62
2023-02-13T05:03:04.384Z,-3.65
2023-02-13T05:04:09.401Z,-3.65
2023-02-13T05:05:11.532Z,-3.67
2023-02-13T05:06:16.273Z,-3.68
2023-02-13T05:07:18.407Z,-3.74
2023-02-13T05:08:23.240Z,-3.73
2023-02-13T05:09:25.477Z,-3.79
2023-02-13T05:10:33.002Z,-3.84
2023-02-13T05:11:35.034Z,-3.87
2023-02-13T05:12:39.858Z,-3.86
2023-02-13T05:13:42.168Z,-3.91
2023-02-13T05:14:46.847Z,-3.86
2023-02-13T05:15:49.188Z,-3.86
2023-02-13T05:16:54.006Z,-3.83
2023-02-13T05:17:55.979Z,-3.80
2023-02-13T05:19:00.734Z,-3.78
2023-02-13T05:20:02.862Z,-3.79
2023-02-13T05:21:20.314Z,-3.80
2023-02-13T05:22:37.497Z,-3.79
2023-02-13T05:23:42.118Z,-3.82
2023-02-13T05:24:44.118Z,-3.86
2023-02-13T05:25:51.789Z,-3.89
2023-02-13T05:26:53.943Z,-3.95
2023-02-13T05:27:58.766Z,-4.00
2023-02-13T05:29:15.856Z,-4.05
2023-02-13T05:30:20.569Z,-4.08
2023-02-13T05:31:22.725Z,-4.13
2023-02-13T05:32:27.434Z,-4.18
2023-02-13T05:33:29.516Z,-4.18
2023-02-13T05:34:34.408Z,-4.16
2023-02-13T05:35:36.518Z,-4.11
2023-02-13T05:36:41.086Z,-4.14
2023-02-13T05:37:43.129Z,-4.12
2023-02-13T05:38:47.774Z,-4.15
2023-02-13T05:39:49.823Z,-4.15
2023-02-13T05:40:57.326Z,-4.17
2023-02-13T05:42:04.848Z,-4.18
2023-02-13T05:43:06.878Z,-4.20
2023-02-13T05:44:12.116Z,-4.18
2023-02-13T05:45:14.457Z,-4.21
2023-02-13T05:46:19.226Z,-4.21
2023-02-13T05:47:21.407Z,-4.19
2023-02-13T05:48:26.137Z,-4.22
2023-02-13T05:49:30.892Z,-4.24
2023-02-13T05:50:32.993Z,-4.26
2023-02-13T05:51:37.968Z,-4.25
2023-02-13T05:52:39.950Z,-4.25
2023-02-13T05:53:44.598Z,-4.25
2023-02-13T05:54:46.745Z,-4.27
2023-02-13T05:55:52.328Z,-4.27
2023-02-13T05:56:57.183Z,-4.30
2023-02-13T05:58:02.051Z,-4.32
2023-02-13T05:59:04.607Z,-4.31
2023-02-13T06:00:10.725Z,-4.34
2023-02-13T06:01:13.066Z,-4.36
2023-02-13T06:02:17.770Z,-4.38
2023-02-13T06:03:19.953Z,-4.38
2023-02-13T06:04:24.860Z,-4.38
2023-02-13T06:05:26.966Z,-4.32
2023-02-13T06:06:31.900Z,-4.35
2023-02-13T06:07:37.279Z,-4.36
2023-02-13T06:08:39.493Z,-4.35
2023-02-13T06:09:47.154Z,-4.35
2023-02-13T06:10:49.364Z,-4.35
2023-02-13T06:11:54.275Z,-4.36
2023-02-13T06:12:59.052Z,-4.34
2023-02-13T06:14:03.790Z,-4.36
2023-02-13T06:15:07.454Z,-4.34
2023-02-13T06:16:13.454Z,-4.35
2023-02-13T06:17:18.217Z,-4.34
2023-02-13T06:18:20.406Z,-4.32
2023-02-13T06:19:25.176Z,-4.36
2023-02-13T06:20:27.282Z,-4.37
2023-02-13T06:21:33.531Z,-4.36
2023-02-13T06:22:35.712Z,-4.34
2023-02-13T06:23:41.307Z,-4.32
2023-02-13T06:24:43.445Z,-4.30
2023-02-13T06:25:48.241Z,-4.31
2023-02-13T06:26:52.968Z,-4.31
2023-02-13T06:27:55.221Z,-4.31
2023-02-13T06:29:03.577Z,-4.30
2023-02-13T06:30:08.162Z,-4.31
2023-02-13T06:31:13.033Z,-4.25
2023-02-13T06:32:15.220Z,-4.28
2023-02-13T06:33:19.908Z,-4.29
2023-02-13T06:34:22.132Z,-4.31
2023-02-13T06:35:27.508Z,-4.33
2023-02-13T06:36:32.397Z,-4.34
2023-02-13T06:37:34.963Z,-4.36
2023-02-13T06:38:39.696Z,-4.36
2023-02-13T06:39:42.900Z,-4.38
2023-02-13T06:40:47.581Z,-4.38
2023-02-13T06:41:49.600Z,-4.36
2023-02-13T06:42:54.365Z,-4.37
2023-02-13T06:43:56.603Z,-4.30
2023-02-13T06:45:03.894Z,-4.33
2023-02-13T06:46:06.760Z,-4.29
2023-02-13T06:47:11.462Z,-4.23
2023-02-13T06:48:13.792Z,-4.23
2023-02-13T06:49:18.541Z,-4.22
2023-02-13T06:50:20.883Z,-4.23
2023-02-13T06:51:25.724Z,-4.24
2023-02-13T06:52:28.012Z,-4.23
2023-02-13T06:53:33.217Z,-4.23
2023-02-13T06:54:46.822Z,-4.19
2023-02-13T06:55:52.596Z,-4.20
2023-02-13T06:56:54.723Z,-4.19
2023-02-13T06:57:59.497Z,-4.18
2023-02-13T06:59:04.431Z,-4.14
2023-02-13T07:00:13.390Z,-4.10
2023-02-13T07:01:18.190Z,-4.10
2023-02-13T07:02:20.403Z,-4.09
2023-02-13T07:03:25.294Z,-4.07
2023-02-13T07:04:28.260Z,-4.02
2023-02-13T07:05:33.187Z,-3.99
2023-02-13T07:06:37.883Z,-3.95
2023-02-13T07:07:41.906Z,-3.95
2023-02-13T07:08:46.703Z,-3.90
2023-02-13T07:09:48.757Z,-3.85
2023-02-13T07:10:53.485Z,-3.81
2023-02-13T07:11:55.481Z,-3.78
2023-02-13T07:13:05.643Z,-3.72
2023-02-13T07:14:09.035Z,-3.65
2023-02-13T07:15:16.227Z,-3.61
2023-02-13T07:16:21.421Z,-3.57
2023-02-13T07:17:26.920Z,-3.55
2023-02-13T07:18:29.029Z,-3.52
2023-02-13T07:19:34.688Z,-3.47
2023-02-13T07:20:39.716Z,-3.43
2023-02-13T07:21:41.871Z,-3.40
2023-02-13T07:22:46.606Z,-3.37
2023-02-13T07:23:48.748Z,-3.31
2023-02-13T07:24:53.493Z,-3.28
2023-02-13T07:25:58.272Z,-3.20
2023-02-13T07:27:00.387Z,-3.13
2023-02-13T07:28:06.355Z,-3.13
2023-02-13T07:29:12.256Z,-3.08
2023-02-13T07:30:17.687Z,-3.08
2023-02-13T07:31:22.448Z,-3.04
2023-02-13T07:32:24.955Z,-3.01
2023-02-13T07:33:29.641Z,-2.96
2023-02-13T07:34:31.708Z,-2.93
2023-02-13T07:35:37.789Z,-2.92
2023-02-13T07:36:42.506Z,-2.88
2023-02-13T07:37:47.181Z,-2.85
2023-02-13T07:38:49.310Z,-2.76
2023-02-13T07:39:54.111Z,-2.73
2023-02-13T07:40:59.265Z,-2.69
2023-02-13T07:42:04.035Z,-2.64
2023-02-13T07:43:08.903Z,-2.61
2023-02-13T07:44:11.336Z,-2.54
2023-02-13T07:45:16.282Z,-2.43
2023-02-13T07:46:21.252Z,-2.37
2023-02-13T07:47:25.936Z,-2.29
2023-02-13T07:48:31.926Z,-2.14
2023-02-13T07:49:34.475Z,-2.08
2023-02-13T07:50:39.436Z,-1.98
2023-02-13T07:51:44.392Z,-1.89
2023-02-13T07:52:56.470Z,-1.70
2023-02-13T07:53:58.527Z,-1.63
2023-02-13T07:55:03.347Z,-1.56
2023-02-13T07:56:09.477Z,-1.49
2023-02-13T07:57:14.325Z,-1.33
2023-02-13T07:58:19.061Z,-1.30
2023-02-13T07:59:21.221Z,-1.24
2023-02-13T08:00:26.532Z,-1.24
2023-02-13T08:01:33.996Z,-1.21
2023-02-13T08:02:36.118Z,-1.17
2023-02-13T08:03:41.093Z,-1.04
2023-02-13T08:04:48.030Z,-0.86
2023-02-13T08:05:52.766Z,-0.59
2023-02-13T08:06:57.479Z,-0.24
2023-02-13T08:08:00.224Z,0.13
2023-02-13T08:09:17.557Z,0.46
2023-02-13T08:10:35.497Z,0.84
2023-02-13T08:11:52.649Z,1.36
2023-02-13T08:12:57.754Z,1.89
2023-02-13T08:13:59.864Z,2.21
2023-02-13T08:15:04.611Z,2.60
2023-02-13T08:16:07.064Z,2.92
2023-02-13T08:17:15.026Z,3.06
2023-02-13T08:18:20.194Z,3.51
2023-02-13T08:19:24.981Z,3.92
2023-02-13T08:20:29.760Z,4.22
2023-02-13T08:21:35.449Z,4.34
2023-02-13T08:22:41.098Z,4.75
2023-02-13T08:23:43.569Z,5.20
2023-02-13T08:24:48.337Z,5.23
2023-02-13T08:25:50.581Z,5.38
2023-02-13T08:26:55.457Z,5.54
2023-02-13T08:28:00.512Z,5.68
2023-02-13T08:29:05.261Z,5.97
2023-02-13T08:30:11.709Z,6.10
2023-02-13T08:31:13.948Z,6.18
2023-02-13T08:32:21.507Z,6.71
2023-02-13T08:33:27.100Z,6.95
2023-02-13T08:34:29.237Z,7.24
2023-02-13T08:35:34.104Z,7.52
2023-02-13T08:36:36.325Z,7.82
2023-02-13T08:37:41.144Z,8.18
2023-02-13T08:38:45.980Z,8.47
2023-02-13T08:39:50.804Z,8.73
2023-02-13T08:40:53.197Z,9.13
2023-02-13T08:41:58.016Z,9.16
2023-02-13T08:43:04.098Z,9.32
2023-02-13T08:44:08.907Z,9.38
2023-02-13T08:45:11.963Z,9.34
2023-02-13T08:46:17.063Z,9.71
2023-02-13T08:47:24.687Z,10.02
2023-02-13T08:48:29.537Z,10.33
2023-02-13T08:49:34.382Z,10.52
2023-02-13T08:51:30.808Z,10.49
2023-02-13T08:58:39.620Z,11.91
2023-02-13T08:59:49.904Z,11.88
2023-02-13T09:01:01.699Z,11.86
2023-02-13T09:02:12.189Z,12.13
2023-02-13T09:03:20.363Z,12.07
2023-02-13T09:04:25.380Z,11.53
2023-02-13T09:05:31.845Z,12.14
2023-02-13T09:06:36.798Z,12.37
2023-02-13T09:07:41.543Z,12.69
2023-02-13T09:08:46.498Z,13.04
2023-02-13T09:09:51.407Z,13.34
2023-02-13T09:11:01.341Z,13.54
2023-02-13T09:12:06.429Z,13.41
2023-02-13T09:13:11.237Z,13.49
2023-02-13T09:14:16.178Z,13.60
2023-02-13T09:15:21.113Z,13.59
2023-02-13T09:16:26.778Z,13.73
2023-02-13T09:17:28.975Z,13.88
2023-02-13T09:18:37.320Z,14.01
2023-02-13T09:19:42.126Z,14.03
2023-02-13T09:20:46.904Z,14.18
2023-02-13T09:21:51.647Z,14.04
2023-02-13T09:22:58.757Z,14.20
2023-02-13T09:24:03.501Z,13.84
2023-02-13T09:25:12.339Z,14.32
2023-02-13T09:26:20.433Z,14.72
2023-02-13T09:27:25.627Z,14.52
2023-02-13T09:28:30.484Z,14.65
2023-02-13T09:29:35.347Z,14.76
2023-02-13T09:30:37.498Z,14.66
2023-02-13T09:31:42.496Z,14.92
2023-02-13T09:32:47.401Z,14.48
2023-02-13T09:33:55.057Z,14.71
2023-02-13T09:35:00.626Z,15.29
2023-02-13T09:36:08.527Z,15.24
2023-02-13T09:37:10.908Z,15.03
2023-02-13T09:38:16.006Z,15.27
2023-02-13T09:39:21.191Z,15.49
2023-02-13T09:40:28.272Z,15.72
2023-02-13T09:41:36.423Z,16.05
2023-02-13T09:42:38.879Z,16.10
2023-02-13T09:43:48.041Z,16.42
2023-02-13T09:44:51.866Z,16.47
2023-02-13T09:45:58.964Z,16.00
2023-02-13T09:47:08.422Z,16.44
2023-02-13T09:48:22.964Z,16.00
2023-02-13T09:49:35.232Z,16.30
2023-02-13T09:50:41.257Z,16.26
2023-02-13T09:51:48.166Z,16.19
2023-02-13T09:52:54.878Z,16.44
2023-02-13T09:54:03.197Z,16.48
2023-02-13T09:55:18.548Z,16.44
2023-02-13T09:56:40.510Z,15.94
2023-02-13T09:57:47.888Z,16.33
2023-02-13T09:59:01.545Z,16.72
2023-02-13T10:00:14.744Z,17.05
2023-02-13T10:03:29.314Z,17.01
2023-02-13T10:04:50.944Z,16.37
2023-02-13T10:06:02.927Z,16.83
2023-02-13T10:07:23.521Z,16.99
2023-02-13T10:08:57.900Z,17.14
2023-02-13T10:10:05.947Z,17.22
2023-02-13T10:11:26.045Z,17.39
2023-02-13T10:12:49.934Z,17.49
2023-02-13T10:14:10.531Z,17.58
2023-02-13T10:15:25.265Z,17.40
2023-02-13T10:16:33.464Z,17.57
2023-02-13T10:17:39.933Z,17.85
2023-02-13T10:18:51.228Z,18.23
2023-02-13T10:20:04.446Z,18.31
2023-02-13T10:21:11.963Z,18.51
2023-02-13T10:22:19.579Z,18.73
2023-02-13T10:23:30.227Z,18.74
2023-02-13T10:24:39.338Z,18.89
2023-02-13T10:25:51.042Z,18.74
2023-02-13T10:26:55.478Z,18.72
2023-02-13T10:28:08.418Z,17.67
2023-02-13T10:29:33.210Z,18.47
2023-02-13T10:30:44.185Z,18.52
2023-02-13T10:31:49.917Z,18.51
2023-02-13T10:33:14.370Z,18.64
2023-02-13T10:34:20.647Z,18.59
2023-02-13T10:35:34.145Z,17.53
2023-02-13T10:36:44.451Z,18.16
2023-02-13T10:37:52.467Z,18.31
2023-02-13T10:39:00.764Z,18.37
2023-02-13T10:40:05.484Z,18.51
2023-02-13T10:41:26.731Z,18.04
2023-02-13T10:42:44.269Z,18.15
2023-02-13T10:44:00.135Z,18.45
2023-02-13T10:45:17.647Z,18.69
2023-02-13T10:46:27.932Z,18.38
2023-02-13T10:47:48.774Z,18.16
2023-02-13T10:49:11.812Z,17.99
2023-02-13T10:50:25.886Z,17.54
2023-02-13T10:51:40.334Z,17.51
2023-02-13T10:52:54.848Z,18.18
2023-02-13T10:54:30.434Z,18.30
2023-02-13T10:55:55.874Z,18.48
2023-02-13T10:57:11.795Z,18.78
2023-02-13T10:58:20.464Z,19.06
2023-02-13T10:59:40.637Z,19.00
2023-02-13T11:00:51.694Z,19.23
2023-02-13T11:01:59.778Z,18.87
2023-02-13T11:03:04.803Z,19.02
2023-02-13T11:04:13.267Z,19.26
2023-02-13T11:05:21.448Z,19.39
2023-02-13T11:06:23.537Z,19.28
2023-02-13T11:07:33.230Z,19.35
2023-02-13T11:08:39.528Z,19.27
2023-02-13T11:09:47.356Z,18.50
2023-02-13T11:10:52.721Z,18.67
2023-02-13T11:11:57.690Z,18.44
2023-02-13T11:13:19.104Z,18.02
2023-02-13T11:14:25.322Z,18.44
2023-02-13T11:15:32.271Z,17.97
2023-02-13T11:16:40.671Z,16.83
2023-02-13T11:17:46.822Z,17.41
2023-02-13T11:18:53.510Z,16.75
2023-02-13T11:20:00.166Z,15.99
2023-02-13T11:21:09.554Z,16.62
2023-02-13T11:22:16.919Z,17.18
2023-02-13T11:23:40.892Z,17.43
2023-02-13T11:24:55.668Z,17.28
2023-02-13T11:26:04.156Z,17.07
2023-02-13T11:27:13.890Z,17.42
2023-02-13T11:28:23.222Z,17.56
2023-02-13T11:29:31.158Z,17.42
2023-02-13T11:30:35.414Z,16.99
2023-02-13T11:31:41.355Z,17.08
2023-02-13T11:33:00.702Z,17.13
2023-02-13T11:34:27.678Z,17.15
2023-02-13T11:35:35.786Z,16.15
2023-02-13T11:36:40.710Z,15.40
2023-02-13T11:37:45.351Z,16.04
2023-02-13T11:38:58.421Z,16.02
2023-02-13T11:40:23.543Z,16.54
2023-02-13T11:41:29.125Z,16.43
2023-02-13T11:42:36.535Z,16.56
2023-02-13T11:43:47.791Z,16.31
2023-02-13T11:44:56.404Z,16.20
2023-02-13T11:46:04.211Z,16.71
2023-02-13T11:47:09.807Z,16.71
2023-02-13T11:48:24.783Z,16.44
2023-02-13T11:49:32.753Z,16.02
2023-02-13T11:50:38.996Z,16.59
2023-02-13T11:51:47.641Z,16.80
2023-02-13T11:54:32.572Z,17.04
2023-02-13T11:55:38.938Z,16.92
2023-02-13T11:57:04.157Z,15.78
2023-02-13T11:58:27.907Z,16.34
2023-02-13T11:59:36.012Z,15.94
2023-02-13T12:00:43.518Z,14.49
2023-02-13T12:01:49.356Z,15.54
2023-02-13T12:02:54.178Z,15.98
2023-02-13T12:04:04.705Z,15.83
2023-02-13T12:05:21.287Z,15.20
2023-02-13T12:06:25.964Z,15.34
2023-02-13T12:07:32.980Z,15.94
2023-02-13T12:08:40.324Z,16.33
2023-02-13T12:09:50.788Z,16.17
2023-02-13T12:10:57.260Z,16.61
2023-02-13T12:12:06.646Z,16.83
2023-02-13T12:13:18.392Z,16.21
2023-02-13T12:14:24.851Z,16.31
2023-02-13T12:15:31.937Z,16.55
2023-02-13T12:16:43.375Z,16.54
2023-02-13T12:17:51.031Z,16.70
2023-02-13T12:18:58.839Z,16.54
2023-02-13T12:20:04.132Z,15.35
2023-02-13T12:21:22.848Z,15.98
2023-02-13T12:22:40.463Z,16.42
2023-02-13T12:23:52.429Z,16.20
2023-02-13T12:25:40.721Z,16.12
2023-02-13T12:26:47.453Z,16.42
2023-02-13T12:28:05.888Z,16.54
2023-02-13T12:29:45.548Z,16.61
2023-02-13T12:31:09.670Z,16.32
2023-02-13T12:32:22.398Z,16.34
2023-02-13T12:33:44.129Z,16.30
2023-02-13T12:35:04.676Z,15.76
2023-02-13T12:36:17.439Z,16.21
2023-02-13T12:37:37.151Z,16.39
2023-02-13T12:39:02.623Z,16.34
2023-02-13T12:40:30.915Z,16.33
2023-02-13T12:41:46.589Z,16.22
2023-02-13T12:43:00.666Z,16.18
2023-02-13T12:44:22.952Z,16.23
2023-02-13T12:45:37.968Z,16.38
2023-02-13T12:46:53.459Z,16.20
2023-02-13T12:48:24.470Z,16.19
2023-02-13T12:49:45.421Z,16.36
2023-02-13T12:51:02.281Z,16.26
2023-02-13T12:52:22.651Z,16.38
2023-02-13T12:53:45.083Z,16.31
2023-02-13T12:55:01.804Z,16.27
2023-02-13T12:56:20.536Z,16.22
2023-02-13T12:57:42.974Z,16.24
2023-02-13T12:59:03.740Z,16.08
2023-02-13T13:00:27.102Z,16.25
2023-02-13T13:01:52.480Z,16.24
2023-02-13T13:03:25.478Z,16.25
2023-02-13T13:04:41.741Z,16.34
2023-02-13T13:06:11.810Z,16.27
2023-02-13T13:07:41.726Z,16.06
2023-02-13T13:09:23.910Z,15.65
2023-02-13T13:10:40.982Z,15.93
2023-02-13T13:12:11.284Z,15.88
2023-02-13T13:13:27.945Z,15.84
2023-02-13T13:14:41.181Z,16.16
2023-02-13T13:15:55.457Z,16.27
2023-02-13T13:17:08.598Z,16.37
2023-02-13T13:18:32.653Z,16.48
2023-02-13T13:19:47.630Z,16.59
2023-02-13T13:21:01.117Z,16.76
2023-02-13T13:22:11.951Z,17.17
2023-02-13T13:23:20.826Z,17.40
2023-02-13T13:24:36.063Z,17.58
2023-02-13T13:25:50.141Z,17.63
2023-02-13T13:26:54.875Z,16.77
2023-02-13T13:28:05.294Z,17.11
2023-02-13T13:29:19.254Z,17.52
2023-02-13T13:30:29.033Z,17.47
2023-02-13T13:31:37.261Z,17.57
2023-02-13T13:32:43.560Z,17.80
2023-02-13T13:33:50.060Z,17.26
2023-02-13T13:34:55.272Z,17.93
2023-02-13T13:36:06.998Z,18.00
2023-02-13T13:37:19.299Z,18.01
2023-02-13T13:38:33.164Z,18.46
2023-02-13T13:39:50.437Z,17.90
2023-02-13T13:41:01.529Z,18.13
2023-02-13T13:42:17.151Z,17.03
2023-02-13T13:43:32.618Z,18.08
2023-02-13T13:45:00.867Z,18.73
2023-02-13T13:46:14.280Z,19.12
2023-02-13T13:47:29.240Z,18.90
2023-02-13T13:49:01.290Z,19.59
2023-02-13T13:50:07.972Z,20.04
2023-02-13T13:51:20.496Z,20.15
2023-02-13T13:52:28.313Z,20.61
2023-02-13T13:53:30.541Z,20.60
2023-02-13T13:54:38.832Z,19.44
2023-02-13T13:56:02.523Z,20.30
2023-02-13T13:57:14.620Z,20.87
2023-02-13T13:58:25.183Z,20.66
2023-02-13T13:59:59.653Z,21.33
2023-02-13T14:01:23.222Z,20.49
2023-02-13T14:02:44.463Z,21.35
2023-02-13T14:03:50.580Z,21.51
2023-02-13T14:05:02.866Z,21.25
2023-02-13T14:06:10.670Z,21.27
2023-02-13T14:07:25.985Z,20.72
2023-02-13T14:09:09.714Z,20.49
2023-02-13T14:10:59.863Z,20.61
2023-02-13T14:12:45.160Z,21.80
2023-02-13T14:13:47.312Z,21.89
2023-02-13T14:14:52.690Z,22.12
2023-02-13T14:15:57.636Z,21.16
2023-02-13T14:17:05.578Z,21.74
2023-02-13T14:18:22.310Z,22.25
2023-02-13T14:19:29.902Z,22.27
2023-02-13T14:20:39.080Z,21.92
2023-02-13T14:21:43.687Z,21.68
2023-02-13T14:22:48.533Z,21.19
2023-02-13T14:23:53.709Z,22.03
2023-02-13T14:24:57.767Z,22.29
2023-02-13T14:26:36.335Z,22.18
2023-02-13T14:27:42.445Z,22.03
2023-02-13T14:28:59.796Z,22.27
2023-02-13T14:30:05.056Z,22.37
2023-02-13T14:31:16.994Z,22.55
2023-02-13T14:32:28.047Z,22.64
2023-02-13T14:33:35.165Z,23.15
2023-02-13T14:34:42.337Z,22.43
2023-02-13T14:35:47.156Z,23.20
2023-02-13T14:37:05.752Z,22.54
2023-02-13T14:38:28.230Z,22.28
2023-02-13T14:39:35.649Z,22.82
2023-02-13T14:40:49.859Z,23.05
2023-02-13T14:42:05.011Z,21.83
2023-02-13T14:43:37.587Z,21.31
2023-02-13T14:44:50.003Z,21.94
2023-02-13T14:45:58.162Z,22.43
2023-02-13T14:47:04.814Z,21.73
2023-02-13T14:48:17.287Z,22.54
2023-02-13T14:49:26.244Z,22.46
2023-02-13T14:50:31.037Z,22.86
2023-02-13T14:51:40.188Z,22.66
2023-02-13T14:52:46.634Z,22.81
2023-02-13T14:53:55.606Z,22.56
2023-02-13T14:55:06.770Z,22.64
2023-02-13T14:56:18.976Z,22.31
2023-02-13T14:57:28.380Z,22.71
2023-02-13T14:58:36.147Z,22.87
2023-02-13T14:59:46.446Z,21.36
2023-02-13T15:00:55.201Z,22.24
2023-02-13T15:02:03.656Z,22.54
2023-02-13T15:03:23.228Z,22.89
2023-02-13T15:04:33.762Z,22.20